Terminal Aerodrome Forecast
Issued by NWS Cleveland, OH

Home | Current Version | Previous Version | Text Only | Print | Product List | Glossary On
Versions: 1 2 3 4 5 6 7 8 9 10 11 12 13 14 15 16 17 18
000
FTUS41 KCLE 221135
TAFTOL
TAF
KTOL 221135Z 2212/2312 13005KT 2SM -SHRA BR SCT002 OVC040
      WS020/22040KT
      TEMPO 2212/2214 3SM -SHRA
     FM221400 16008KT P6SM VCSH BKN040 WS020/22040KT
     FM221800 18014G20KT 3SM -SHRA BR OVC012
     FM222300 18010KT 5SM BR OVC012=

USA.gov is the U.S. government's official web portal to all federal, state and local government web resources and services.